Airfield :







YOU CAN JOIN US ON...

 
LOGIN :

Register | Disclaimer

   EN    FR    IT 

 









Legend :    VFR   Marginal VFR   IFR   Intensive IFR   Very Intensive IFR
Visi :
Ceiling :
>= 8 km
>= 3000ft
5 to 8 km
1000 to 3000 ft
1500m to 5 km
500 to 1000 ft
800 to 1500m
200 to 500 ft
< 800m
< 200 ft
Symbols :   Thunderstorms  Fog  Heavy snow  Heavy precipitations  Wind > 20 kt







- Airport Elevation : 322 ft


KDAW - Skyhaven

CURRENT METAR :
  • 201451Z AUTO 02006KT 1/2SM SN FG BKN004 OVC010 00/00 A2992 RMK AO2 SLP131 P0003 60012 T00000000 58010

EXPIRED METARs :
  • 201351Z AUTO 02005KT 3/4SM -SN BR BKN005 OVC010 00/00 A2993 RMK AO2 SLP134 P0005 T00000000
  • 201342Z AUTO 03006KT 3/4SM -SN BR BKN004 OVC010 00/00 A2993 RMK AO2 P0004 T00000000
  • 201328Z AUTO 03004KT 3/4SM -SN BR BKN005 OVC008 00/00 A2993 RMK AO2 P0003 T00000000
  • 201251Z AUTO 03006KT 1/2SM SN FG BKN003 OVC007 01/01 A2994 RMK AO2 SLP138 P0004 T00060006
  • 201226Z AUTO 03005KT 3/4SM -SN BR BKN003 OVC009 01/01 A2994 RMK AO2 P0002 T00060006

TAF N/A
KZBW FIR / North America



MET'MAP, your aeronautical weather chart ! - Copyright ORBIFLY December 2007 - Disclaimer

ORBIFLY MET'MAP TEAM :

Programming & Development : Alexandra Zaïnal
Concept & Development : Baudouin d'Aumeries
Co-Development & Prog : Marc-Olivier Méhu
Technical & hardware support : Manuel Goepfert

Contact : metmap@orbifly.com




SOURCES & CREDITS :

   NOAA